Time,TemperatureF,DewpointF,PressureIn,WindDirection,WindDirectionDegrees,WindSpeedMPH,WindSpeedGustMPH,Humidity,HourlyPrecipIn,Conditions,Clouds,dailyrainin,SoftwareType,DateUTC
2013-10-19 00:00:00,40.1,38.0,29.81,SW,214,0.0,1.0,92,0.00,CLR,,0.00,WeatherDisplay:10.37,2013-10-19 05:00:00,
2013-10-19 00:05:00,40.1,38.0,29.81,SW,214,0.0,0.0,92,0.00,CLR,,0.00,WeatherDisplay:10.37,2013-10-19 05:05:00,
2013-10-19 00:15:00,39.9,37.8,29.81,SW,214,0.0,0.0,92,0.00,CLR,,0.00,WeatherDisplay:10.37,2013-10-19 05:15:00,
2013-10-19 00:20:00,39.9,37.8,29.80,SW,214,0.0,0.0,92,0.00,CLR,,0.00,WeatherDisplay:10.37,2013-10-19 05:20:00,
2013-10-19 00:25:00,39.9,37.8,29.80,SW,214,0.0,0.0,92,0.00,CLR,,0.00,WeatherDisplay:10.37,2013-10-19 05:25:00,
2013-10-19 00:35:00,39.6,37.5,29.80,SW,214,0.0,0.0,92,0.00,CLR,,0.00,WeatherDisplay:10.37,2013-10-19 05:35:00,
2013-10-19 00:40:00,39.5,37.4,29.80,SW,214,0.0,0.0,92,0.00,CLR,,0.00,WeatherDisplay:10.37,2013-10-19 05:40:00,
2013-10-19 00:45:00,39.3,37.2,29.80,SW,214,0.0,0.0,92,0.00,CLR,,0.00,WeatherDisplay:10.37,2013-10-19 05:45:00,
2013-10-19 00:50:00,39.2,37.1,29.79,SW,214,0.0,0.0,92,0.00,CLR,,0.00,WeatherDisplay:10.37,2013-10-19 05:50:00,
2013-10-19 00:55:00,39.1,37.0,29.79,SW,214,0.0,0.0,92,0.00,CLR,,0.00,WeatherDisplay:10.37,2013-10-19 05:55:00,
2013-10-19 01:00:00,39.1,37.2,29.79,SW,214,0.0,0.0,93,0.00,CLR,,0.00,WeatherDisplay:10.37,2013-10-19 06:00:00,
2013-10-19 01:05:00,38.9,37.0,29.78,SW,214,0.0,0.0,93,0.00,CLR,,0.00,WeatherDisplay:10.37,2013-10-19 06:05:00,
2013-10-19 01:10:00,38.8,36.9,29.78,SW,214,0.0,0.0,93,0.00,CLR,,0.00,WeatherDisplay:10.37,2013-10-19 06:10:00,
2013-10-19 01:15:00,38.8,36.9,29.78,SW,214,0.0,0.0,93,0.00,CLR,,0.00,WeatherDisplay:10.37,2013-10-19 06:15:00,
2013-10-19 01:20:00,38.6,36.8,29.78,SW,214,0.0,0.0,93,0.00,CLR,,0.00,WeatherDisplay:10.37,2013-10-19 06:20:00,
2013-10-19 01:25:00,38.5,36.9,29.78,SW,214,0.0,0.0,94,0.00,CLR,,0.00,WeatherDisplay:10.37,2013-10-19 06:25:00,
2013-10-19 01:30:00,38.5,36.9,29.78,SW,214,0.0,0.0,94,0.00,CLR,,0.00,WeatherDisplay:10.37,2013-10-19 06:30:00,
2013-10-19 01:35:00,38.5,36.9,29.78,SW,214,0.0,0.0,94,0.00,CLR,,0.00,WeatherDisplay:10.37,2013-10-19 06:35:00,
2013-10-19 01:40:00,38.6,37.0,29.78,SW,214,0.0,0.0,94,0.00,CLR,,0.00,WeatherDisplay:10.37,2013-10-19 06:40:00,
2013-10-19 01:45:00,39.0,37.4,29.78,SW,214,0.0,0.0,94,0.00,CLR,,0.00,WeatherDisplay:10.37,2013-10-19 06:45:00,
2013-10-19 01:50:00,39.2,37.6,29.77,SW,214,0.0,0.0,94,0.00,CLR,,0.00,WeatherDisplay:10.37,2013-10-19 06:50:00,
2013-10-19 01:55:00,39.2,37.3,29.77,SW,214,0.0,0.0,93,0.00,CLR,,0.00,WeatherDisplay:10.37,2013-10-19 06:55:00,
2013-10-19 02:00:00,39.2,37.3,29.77,SW,214,0.0,0.0,93,0.00,CLR,,0.00,WeatherDisplay:10.37,2013-10-19 07:00:00,
2013-10-19 02:05:00,39.2,37.3,29.77,SW,214,0.0,0.0,93,0.00,CLR,,0.00,WeatherDisplay:10.37,2013-10-19 07:05:00,
2013-10-19 02:10:00,39.1,37.2,29.77,SW,214,0.0,0.0,93,0.00,CLR,,0.00,WeatherDisplay:10.37,2013-10-19 07:10:00,
2013-10-19 02:15:00,39.1,37.2,29.77,SW,214,0.0,0.0,93,0.00,CLR,,0.00,WeatherDisplay:10.37,2013-10-19 07:15:00,
2013-10-19 02:20:00,38.9,37.0,29.76,SW,214,0.0,0.0,93,0.00,CLR,,0.00,WeatherDisplay:10.37,2013-10-19 07:20:00,
2013-10-19 02:25:00,38.9,37.0,29.76,SW,214,0.0,0.0,93,0.00,CLR,,0.00,WeatherDisplay:10.37,2013-10-19 07:25:00,
2013-10-19 02:30:00,38.9,37.0,29.76,SW,214,0.0,0.0,93,0.00,CLR,,0.00,WeatherDisplay:10.37,2013-10-19 07:30:00,
2013-10-19 02:35:00,38.8,36.7,29.76,SW,214,0.0,0.0,92,0.00,CLR,,0.00,WeatherDisplay:10.37,2013-10-19 07:35:00,
2013-10-19 02:40:00,38.8,36.7,29.76,SW,214,0.0,0.0,92,0.00,CLR,,0.00,WeatherDisplay:10.37,2013-10-19 07:40:00,
2013-10-19 02:45:00,38.6,36.8,29.76,SW,214,0.0,0.0,93,0.00,CLR,,0.00,WeatherDisplay:10.37,2013-10-19 07:45:00,
2013-10-19 02:50:00,38.6,36.7,29.75,SW,214,0.0,0.0,93,0.00,CLR,,0.00,WeatherDisplay:10.37,2013-10-19 07:50:00,
2013-10-19 03:00:00,38.3,36.5,29.75,SW,214,0.0,0.0,93,0.00,CLR,,0.00,WeatherDisplay:10.37,2013-10-19 08:00:00,
2013-10-19 03:05:00,38.3,36.5,29.75,SW,214,0.0,0.0,93,0.00,CLR,,0.00,WeatherDisplay:10.37,2013-10-19 08:05:00,
2013-10-19 03:10:00,38.3,36.5,29.75,SW,214,0.0,0.0,93,0.00,CLR,,0.00,WeatherDisplay:10.37,2013-10-19 08:10:00,
2013-10-19 03:15:00,38.2,36.4,29.75,SW,214,0.0,0.0,93,0.00,CLR,,0.00,WeatherDisplay:10.37,2013-10-19 08:15:00,
2013-10-19 03:20:00,38.0,36.2,29.74,SW,214,0.0,0.0,93,0.00,CLR,,0.00,WeatherDisplay:10.37,2013-10-19 08:20:00,
2013-10-19 03:25:00,38.0,36.2,29.74,SW,214,0.0,0.0,93,0.00,CLR,,0.00,WeatherDisplay:10.37,2013-10-19 08:25:00,
2013-10-19 03:30:00,37.9,36.1,29.74,SW,214,0.0,0.0,93,0.00,CLR,,0.00,WeatherDisplay:10.37,2013-10-19 08:30:00,
2013-10-19 03:35:00,37.9,36.0,29.74,SW,214,0.0,0.0,93,0.00,CLR,,0.00,WeatherDisplay:10.37,2013-10-19 08:35:00,
2013-10-19 03:40:00,37.8,36.2,29.74,SW,214,0.0,0.0,94,0.00,CLR,,0.00,WeatherDisplay:10.37,2013-10-19 08:40:00,
2013-10-19 03:45:00,37.6,36.0,29.74,SW,214,0.0,0.0,94,0.00,CLR,,0.00,WeatherDisplay:10.37,2013-10-19 08:45:00,
2013-10-19 03:50:00,37.5,35.9,29.73,SW,214,0.0,0.0,94,0.00,CLR,,0.00,WeatherDisplay:10.37,2013-10-19 08:50:00,
2013-10-19 03:55:00,37.5,35.9,29.73,SW,214,0.0,0.0,94,0.00,CLR,,0.00,WeatherDisplay:10.37,2013-10-19 08:55:00,
2013-10-19 04:00:00,37.3,35.7,29.73,SW,214,0.0,0.0,94,0.00,CLR,,0.00,WeatherDisplay:10.37,2013-10-19 09:00:00,
2013-10-19 04:05:00,37.2,35.6,29.73,SW,214,0.0,0.0,94,0.00,CLR,,0.00,WeatherDisplay:10.37,2013-10-19 09:05:00,
2013-10-19 04:10:00,37.0,35.4,29.73,SW,214,0.0,0.0,94,0.00,CLR,,0.00,WeatherDisplay:10.37,2013-10-19 09:10:00,
2013-10-19 04:15:00,36.9,35.4,29.73,SW,214,0.0,0.0,94,0.00,CLR,,0.00,WeatherDisplay:10.37,2013-10-19 09:15:00,
2013-10-19 04:20:00,36.8,35.3,29.72,SW,214,0.0,0.0,94,0.00,CLR,,0.00,WeatherDisplay:10.37,2013-10-19 09:20:00,
2013-10-19 04:25:00,36.7,35.1,29.72,SW,214,0.0,0.0,94,0.00,CLR,,0.00,WeatherDisplay:10.37,2013-10-19 09:25:00,
2013-10-19 04:30:00,36.6,35.0,29.72,SW,214,0.0,0.0,94,0.00,CLR,,0.00,WeatherDisplay:10.37,2013-10-19 09:30:00,
2013-10-19 04:35:00,36.5,34.9,29.72,SW,214,0.0,0.0,94,0.00,CLR,,0.00,WeatherDisplay:10.37,2013-10-19 09:35:00,
2013-10-19 04:40:00,36.3,35.0,29.72,SW,214,0.0,0.0,95,0.00,CLR,,0.00,WeatherDisplay:10.37,2013-10-19 09:40:00,
2013-10-19 04:45:00,36.3,35.0,29.72,SW,214,0.0,0.0,95,0.00,CLR,,0.00,WeatherDisplay:10.37,2013-10-19 09:45:00,
2013-10-19 04:50:00,36.2,34.9,29.72,SW,214,0.0,0.0,95,0.00,CLR,,0.00,WeatherDisplay:10.37,2013-10-19 09:50:00,
2013-10-19 04:55:00,36.2,34.9,29.72,SW,214,0.0,0.0,95,0.00,CLR,,0.00,WeatherDisplay:10.37,2013-10-19 09:55:00,
2013-10-19 05:00:00,36.2,34.9,29.72,SW,214,0.0,0.0,95,0.00,CLR,,0.00,WeatherDisplay:10.37,2013-10-19 10:00:00,
2013-10-19 05:05:00,36.2,34.9,29.72,SW,214,0.0,0.0,95,0.00,CLR,,0.00,WeatherDisplay:10.37,2013-10-19 10:05:00,
2013-10-19 05:10:00,36.0,34.7,29.72,SW,214,0.0,0.0,95,0.00,CLR,,0.00,WeatherDisplay:10.37,2013-10-19 10:10:00,
2013-10-19 05:15:00,36.0,35.0,29.72,SW,214,0.0,0.0,96,0.00,CLR,,0.00,WeatherDisplay:10.37,2013-10-19 10:15:00,
2013-10-19 05:20:00,35.9,34.9,29.71,SW,214,0.0,0.0,96,0.00,CLR,,0.00,WeatherDisplay:10.37,2013-10-19 10:20:00,
2013-10-19 05:25:00,35.9,34.9,29.71,SW,214,0.0,0.0,96,0.00,CLR,,0.00,WeatherDisplay:10.37,2013-10-19 10:25:00,
2013-10-19 05:30:00,35.8,34.8,29.71,SW,214,0.0,0.0,96,0.00,CLR,,0.00,WeatherDisplay:10.37,2013-10-19 10:30:00,
2013-10-19 05:35:00,35.8,34.8,29.71,SW,214,0.0,0.0,96,0.00,CLR,,0.00,WeatherDisplay:10.37,2013-10-19 10:35:00,
2013-10-19 05:40:00,35.6,34.6,29.71,SW,214,0.0,0.0,96,0.00,CLR,,0.00,WeatherDisplay:10.37,2013-10-19 10:40:00,
2013-10-19 05:45:00,35.5,34.5,29.71,SW,214,0.0,0.0,96,0.00,CLR,,0.00,WeatherDisplay:10.37,2013-10-19 10:45:00,
2013-10-19 05:50:00,35.3,34.3,29.71,SW,214,0.0,0.0,96,0.00,CLR,,0.00,WeatherDisplay:10.37,2013-10-19 10:50:00,
2013-10-19 05:55:00,35.1,34.1,29.71,SW,214,0.0,0.0,96,0.00,CLR,,0.00,WeatherDisplay:10.37,2013-10-19 10:55:00,
2013-10-19 06:00:00,35.0,34.0,29.71,SW,214,0.0,0.0,96,0.00,CLR,,0.00,WeatherDisplay:10.37,2013-10-19 11:00:00,
2013-10-19 06:05:00,35.0,34.0,29.71,SW,214,0.0,0.0,96,0.00,CLR,,0.00,WeatherDisplay:10.37,2013-10-19 11:05:00,
2013-10-19 06:10:00,34.9,33.9,29.71,SW,214,0.0,3.0,96,0.00,CLR,,0.00,WeatherDisplay:10.37,2013-10-19 11:10:00,
2013-10-19 06:15:00,34.9,33.9,29.71,SW,214,0.0,3.0,96,0.00,CLR,,0.00,WeatherDisplay:10.37,2013-10-19 11:15:00,
2013-10-19 06:20:00,34.7,33.7,29.71,SW,214,0.0,0.0,96,0.00,CLR,,0.00,WeatherDisplay:10.37,2013-10-19 11:20:00,
2013-10-19 06:25:00,34.7,33.7,29.71,SW,214,0.0,0.0,96,0.00,CLR,,0.00,WeatherDisplay:10.37,2013-10-19 11:25:00,
2013-10-19 06:30:00,34.6,33.5,29.71,SW,214,0.0,0.0,96,0.00,CLR,,0.00,WeatherDisplay:10.37,2013-10-19 11:30:00,
2013-10-19 06:35:00,34.3,33.3,29.71,SW,214,0.0,0.0,96,0.00,CLR,,0.00,WeatherDisplay:10.37,2013-10-19 11:35:00,
2013-10-19 06:40:00,34.1,33.1,29.71,SW,214,0.0,0.0,96,0.00,CLR,,0.00,WeatherDisplay:10.37,2013-10-19 11:40:00,
2013-10-19 06:45:00,34.1,33.1,29.71,SW,214,0.0,0.0,96,0.00,CLR,,0.00,WeatherDisplay:10.37,2013-10-19 11:45:00,
2013-10-19 06:50:00,34.0,33.0,29.71,SW,214,0.0,0.0,96,0.00,CLR,,0.00,WeatherDisplay:10.37,2013-10-19 11:50:00,
2013-10-19 06:55:00,33.7,32.7,29.71,SW,214,0.0,0.0,96,0.00,CLR,,0.00,WeatherDisplay:10.37,2013-10-19 11:55:00,
2013-10-19 07:00:00,33.5,32.5,29.71,SW,214,0.0,0.0,96,0.00,CLR,,0.00,WeatherDisplay:10.37,2013-10-19 12:00:00,
2013-10-19 07:05:00,33.4,32.4,29.71,SW,214,0.0,0.0,96,0.00,CLR,,0.00,WeatherDisplay:10.37,2013-10-19 12:05:00,
2013-10-19 07:10:00,33.2,32.2,29.71,SW,214,0.0,0.0,96,0.00,CLR,,0.00,WeatherDisplay:10.37,2013-10-19 12:10:00,
2013-10-19 07:15:00,33.1,32.1,29.71,SW,214,0.0,0.0,96,0.00,CLR,,0.00,WeatherDisplay:10.37,2013-10-19 12:15:00,
2013-10-19 07:20:00,32.9,31.9,29.71,SW,214,0.0,0.0,96,0.00,CLR,,0.00,WeatherDisplay:10.37,2013-10-19 12:20:00,
2013-10-19 07:25:00,32.9,32.1,29.71,SW,214,0.0,0.0,97,0.00,CLR,,0.00,WeatherDisplay:10.37,2013-10-19 12:25:00,
2013-10-19 07:30:00,32.9,32.1,29.71,SW,214,0.0,0.0,97,0.00,CLR,,0.00,WeatherDisplay:10.37,2013-10-19 12:30:00,
2013-10-19 07:35:00,32.9,32.1,29.71,SW,214,0.0,0.0,97,0.00,CLR,,0.00,WeatherDisplay:10.37,2013-10-19 12:35:00,
2013-10-19 07:40:00,32.9,32.1,29.71,SW,214,0.0,0.0,97,0.00,CLR,,0.00,WeatherDisplay:10.37,2013-10-19 12:40:00,
2013-10-19 07:45:00,32.9,32.1,29.71,SW,214,0.0,0.0,97,0.00,CLR,,0.00,WeatherDisplay:10.37,2013-10-19 12:45:00,
2013-10-19 07:50:00,33.1,32.3,29.71,SW,214,0.0,0.0,97,0.00,CLR,,0.00,WeatherDisplay:10.37,2013-10-19 12:50:00,
2013-10-19 07:55:00,33.1,32.3,29.71,SW,214,0.0,0.0,97,0.00,CLR,,0.00,WeatherDisplay:10.37,2013-10-19 12:55:00,
2013-10-19 08:00:00,33.2,32.4,29.71,SW,214,0.0,0.0,97,0.00,CLR,,0.00,WeatherDisplay:10.37,2013-10-19 13:00:00,
2013-10-19 08:05:00,33.4,32.6,29.72,SW,214,0.0,0.0,97,0.00,CLR,,0.00,WeatherDisplay:10.37,2013-10-19 13:05:00,
2013-10-19 08:10:00,33.7,33.2,29.72,SW,214,0.0,0.0,98,0.00,CLR,,0.00,WeatherDisplay:10.37,2013-10-19 13:10:00,
2013-10-19 08:15:00,33.8,33.3,29.72,SW,214,0.0,0.0,98,0.00,CLR,,0.00,WeatherDisplay:10.37,2013-10-19 13:15:00,
2013-10-19 08:20:00,34.1,33.6,29.71,SW,214,0.0,0.0,98,0.00,CLR,,0.00,WeatherDisplay:10.37,2013-10-19 13:20:00,
2013-10-19 08:25:00,34.3,33.8,29.71,SW,214,0.0,0.0,98,0.00,CLR,,0.00,WeatherDisplay:10.37,2013-10-19 13:25:00,
2013-10-19 08:30:00,34.7,34.4,29.71,SW,214,0.0,0.0,99,0.00,CLR,,0.00,WeatherDisplay:10.37,2013-10-19 13:30:00,
2013-10-19 08:35:00,35.0,34.7,29.71,SW,214,0.0,0.0,99,0.00,CLR,,0.00,WeatherDisplay:10.37,2013-10-19 13:35:00,
2013-10-19 08:40:00,35.3,35.0,29.71,SW,214,0.0,0.0,99,0.00,CLR,,0.00,WeatherDisplay:10.37,2013-10-19 13:40:00,
2013-10-19 08:45:00,35.6,35.4,29.71,SW,214,0.0,0.0,99,0.00,CLR,,0.00,WeatherDisplay:10.37,2013-10-19 13:45:00,
2013-10-19 08:50:00,36.0,35.7,29.70,SW,214,0.0,0.0,99,0.00,CLR,,0.00,WeatherDisplay:10.37,2013-10-19 13:50:00,
2013-10-19 08:55:00,36.5,36.2,29.70,SW,214,0.0,0.0,99,0.00,CLR,,0.00,WeatherDisplay:10.37,2013-10-19 13:55:00,
2013-10-19 09:00:00,36.8,36.6,29.70,SW,214,0.0,0.0,99,0.00,CLR,,0.00,WeatherDisplay:10.37,2013-10-19 14:00:00,
2013-10-19 09:05:00,37.2,37.0,29.70,SW,214,0.0,3.0,99,0.00,CLR,,0.00,WeatherDisplay:10.37,2013-10-19 14:05:00,
2013-10-19 09:10:00,37.6,37.3,29.70,SW,214,0.0,0.0,99,0.00,CLR,,0.00,WeatherDisplay:10.37,2013-10-19 14:10:00,
2013-10-19 09:15:00,38.1,37.8,29.70,SW,214,0.0,2.0,99,0.00,CLR,,0.00,WeatherDisplay:10.37,2013-10-19 14:15:00,
2013-10-19 09:20:00,38.7,38.4,29.70,SW,214,0.0,3.0,99,0.00,CLR,,0.00,WeatherDisplay:10.37,2013-10-19 14:20:00,
2013-10-19 09:25:00,39.2,38.7,29.70,SW,214,0.0,3.0,98,0.00,CLR,,0.00,WeatherDisplay:10.37,2013-10-19 14:25:00,
2013-10-19 09:30:00,39.6,38.6,29.70,SW,214,0.0,3.0,96,0.00,CLR,,0.00,WeatherDisplay:10.37,2013-10-19 14:30:00,
2013-10-19 09:35:00,40.1,38.5,29.70,SW,215,0.0,2.0,94,0.00,CLR,,0.00,WeatherDisplay:10.37,2013-10-19 14:35:00,
2013-10-19 09:40:00,40.7,38.5,29.70,SW,222,1.0,3.0,92,0.00,CLR,,0.00,WeatherDisplay:10.37,2013-10-19 14:40:00,
2013-10-19 09:45:00,41.3,38.0,29.70,SW,234,1.0,4.0,88,0.00,CLR,,0.00,WeatherDisplay:10.37,2013-10-19 14:45:00,
2013-10-19 09:50:00,42.0,38.1,29.69,SW,228,3.0,6.0,86,0.00,CLR,,0.00,WeatherDisplay:10.37,2013-10-19 14:50:00,
2013-10-19 09:55:00,42.5,37.1,29.69,SW,223,2.0,4.0,81,0.00,CLR,,0.00,WeatherDisplay:10.37,2013-10-19 14:55:00,
2013-10-19 10:00:00,43.1,37.0,29.69,SW,226,2.0,7.0,79,0.00,CLR,,0.00,WeatherDisplay:10.37,2013-10-19 15:00:00,
2013-10-19 10:05:00,43.5,36.8,29.69,SSW,213,1.0,6.0,77,0.00,CLR,,0.00,WeatherDisplay:10.37,2013-10-19 15:05:00,
2013-10-19 10:10:00,43.9,37.1,29.69,SW,218,0.0,5.0,77,0.00,CLR,,0.00,WeatherDisplay:10.37,2013-10-19 15:10:00,
2013-10-19 10:15:00,44.3,37.9,29.69,SW,232,1.0,4.0,78,0.00,CLR,,0.00,WeatherDisplay:10.37,2013-10-19 15:15:00,
2013-10-19 10:20:00,44.8,37.7,29.69,WSW,237,2.0,5.0,76,0.00,CLR,,0.00,WeatherDisplay:10.37,2013-10-19 15:20:00,
2013-10-19 10:25:00,45.1,37.3,29.69,WSW,237,0.0,7.0,74,0.00,CLR,,0.00,WeatherDisplay:10.37,2013-10-19 15:25:00,
2013-10-19 10:30:00,45.4,37.6,29.69,WSW,237,2.0,4.0,74,0.00,CLR,,0.00,WeatherDisplay:10.37,2013-10-19 15:30:00,
2013-10-19 10:35:00,46.0,37.5,29.69,WSW,237,1.0,4.0,72,0.00,CLR,,0.00,WeatherDisplay:10.37,2013-10-19 15:35:00,
2013-10-19 10:40:00,46.5,37.6,29.69,SW,215,2.0,5.0,71,0.00,CLR,,0.00,WeatherDisplay:10.37,2013-10-19 15:40:00,
2013-10-19 10:45:00,46.5,35.7,29.69,SW,214,2.0,7.0,66,0.00,CLR,,0.00,WeatherDisplay:10.37,2013-10-19 15:45:00,
2013-10-19 10:50:00,46.6,37.0,29.68,SW,233,1.0,3.0,69,0.00,CLR,,0.00,WeatherDisplay:10.37,2013-10-19 15:50:00,
2013-10-19 10:55:00,46.7,37.1,29.68,WSW,254,1.0,4.0,69,0.00,CLR,,0.00,WeatherDisplay:10.37,2013-10-19 15:55:00,
2013-10-19 11:00:00,46.4,36.4,29.68,SW,233,2.0,6.0,68,0.00,CLR,,0.00,WeatherDisplay:10.37,2013-10-19 16:00:00,
2013-10-19 11:05:00,46.5,37.2,29.68,SW,222,1.0,4.0,70,0.00,CLR,,0.00,WeatherDisplay:10.37,2013-10-19 16:05:00,
2013-10-19 11:10:00,46.5,35.7,29.68,SW,234,0.0,3.0,66,0.00,CLR,,0.00,WeatherDisplay:10.37,2013-10-19 16:10:00,
2013-10-19 11:15:00,46.5,36.5,29.68,WSW,245,0.0,4.0,68,0.00,CLR,,0.00,WeatherDisplay:10.37,2013-10-19 16:15:00,
2013-10-19 11:20:00,46.4,36.4,29.68,WSW,250,0.0,3.0,68,0.00,CLR,,0.00,WeatherDisplay:10.37,2013-10-19 16:20:00,
2013-10-19 11:25:00,46.4,36.4,29.68,WSW,248,1.0,4.0,68,0.00,CLR,,0.00,WeatherDisplay:10.37,2013-10-19 16:25:00,
2013-10-19 11:30:00,46.5,36.5,29.68,WSW,242,0.0,4.0,68,0.00,CLR,,0.00,WeatherDisplay:10.37,2013-10-19 16:30:00,
2013-10-19 11:40:00,46.8,36.4,29.68,SSW,202,2.0,6.0,67,0.00,CLR,,0.00,WeatherDisplay:10.37,2013-10-19 16:40:00,
2013-10-19 11:45:00,47.0,36.6,29.68,SSW,202,2.0,6.0,67,0.00,CLR,,0.00,WeatherDisplay:10.37,2013-10-19 16:45:00,
2013-10-19 11:50:00,47.0,36.6,29.67,SW,221,0.0,5.0,67,0.00,CLR,,0.00,WeatherDisplay:10.37,2013-10-19 16:50:00,
2013-10-19 11:55:00,47.1,36.7,29.67,SW,222,2.0,7.0,67,0.00,CLR,,0.00,WeatherDisplay:10.37,2013-10-19 16:55:00,
2013-10-19 12:00:00,47.3,36.9,29.67,SW,234,0.0,3.0,67,0.00,CLR,,0.00,WeatherDisplay:10.37,2013-10-19 17:00:00,
2013-10-19 12:05:00,47.4,37.0,29.67,SW,236,1.0,5.0,67,0.00,CLR,,0.00,WeatherDisplay:10.37,2013-10-19 17:05:00,
2013-10-19 12:10:00,47.5,37.1,29.67,SW,230,2.0,6.0,67,0.00,CLR,,0.00,WeatherDisplay:10.37,2013-10-19 17:10:00,
2013-10-19 12:15:00,47.7,36.9,29.67,SW,229,1.0,6.0,66,0.00,CLR,,0.00,WeatherDisplay:10.37,2013-10-19 17:15:00,
2013-10-19 12:20:00,47.7,36.9,29.67,WSW,246,1.0,3.0,66,0.00,CLR,,0.00,WeatherDisplay:10.37,2013-10-19 17:20:00,
2013-10-19 12:25:00,48.0,37.9,29.67,WSW,245,2.0,6.0,68,0.00,CLR,,0.00,WeatherDisplay:10.37,2013-10-19 17:25:00,
2013-10-19 12:30:00,48.5,37.7,29.67,West,261,1.0,6.0,66,0.00,CLR,,0.00,WeatherDisplay:10.37,2013-10-19 17:30:00,
2013-10-19 12:35:00,48.8,37.9,29.66,WSW,250,2.0,6.0,66,0.00,CLR,,0.00,WeatherDisplay:10.37,2013-10-19 17:35:00,
2013-10-19 12:40:00,48.6,37.4,29.66,WSW,239,3.0,8.0,65,0.00,CLR,,0.00,WeatherDisplay:10.37,2013-10-19 17:40:00,
2013-10-19 12:45:00,49.1,37.4,29.66,WSW,237,2.0,10.0,64,0.00,CLR,,0.00,WeatherDisplay:10.37,2013-10-19 17:45:00,
2013-10-19 12:50:00,49.6,37.9,29.65,SW,224,2.0,7.0,64,0.00,CLR,,0.00,WeatherDisplay:10.37,2013-10-19 17:50:00,
2013-10-19 12:55:00,49.6,36.3,29.65,SSW,213,3.0,6.0,60,0.00,CLR,,0.00,WeatherDisplay:10.37,2013-10-19 17:55:00,
2013-10-19 13:00:00,49.2,35.5,29.65,WSW,242,2.0,6.0,59,0.00,CLR,,0.00,WeatherDisplay:10.37,2013-10-19 18:00:00,
2013-10-19 13:05:00,48.9,36.4,29.65,West,267,1.0,4.0,62,0.00,CLR,,0.00,WeatherDisplay:10.37,2013-10-19 18:05:00,
2013-10-19 13:10:00,48.9,35.6,29.65,West,279,1.0,8.0,60,0.00,CLR,,0.00,WeatherDisplay:10.37,2013-10-19 18:10:00,
2013-10-19 13:15:00,49.1,36.2,29.65,WSW,240,2.0,6.0,61,0.00,CLR,,0.00,WeatherDisplay:10.37,2013-10-19 18:15:00,
2013-10-19 13:20:00,49.4,35.7,29.65,West,263,1.0,5.0,59,0.00,CLR,,0.00,WeatherDisplay:10.37,2013-10-19 18:20:00,
2013-10-19 13:25:00,49.6,35.4,29.65,SW,234,2.0,10.0,58,0.00,CLR,,0.00,WeatherDisplay:10.37,2013-10-19 18:25:00,
2013-10-19 13:30:00,49.8,35.2,29.65,WSW,237,2.0,6.0,57,0.00,CLR,,0.00,WeatherDisplay:10.37,2013-10-19 18:30:00,
2013-10-19 13:35:00,49.7,36.4,29.64,WSW,245,2.0,6.0,60,0.00,CLR,,0.00,WeatherDisplay:10.37,2013-10-19 18:35:00,
2013-10-19 13:40:00,49.9,35.7,29.64,SW,226,1.0,9.0,58,0.00,CLR,,0.00,WeatherDisplay:10.37,2013-10-19 18:40:00,
2013-10-19 13:45:00,50.1,35.0,29.64,WSW,237,2.0,10.0,56,0.00,CLR,,0.00,WeatherDisplay:10.37,2013-10-19 18:45:00,
2013-10-19 13:50:00,50.4,35.3,29.63,WSW,243,3.0,7.0,56,0.00,CLR,,0.00,WeatherDisplay:10.37,2013-10-19 18:50:00,
2013-10-19 13:55:00,50.8,34.7,29.63,WSW,241,2.0,6.0,54,0.00,CLR,,0.00,WeatherDisplay:10.37,2013-10-19 18:55:00,
2013-10-19 14:00:00,50.6,34.5,29.63,WSW,248,2.0,8.0,54,0.00,CLR,,0.00,WeatherDisplay:10.37,2013-10-19 19:00:00,
2013-10-19 14:05:00,50.4,35.3,29.63,WSW,251,1.0,8.0,56,0.00,CLR,,0.00,WeatherDisplay:10.37,2013-10-19 19:05:00,
2013-10-19 14:10:00,50.7,35.1,29.63,SW,225,2.0,8.0,55,0.00,CLR,,0.00,WeatherDisplay:10.37,2013-10-19 19:10:00,
2013-10-19 14:15:00,51.0,34.0,29.63,SW,228,0.0,9.0,52,0.00,CLR,,0.00,WeatherDisplay:10.37,2013-10-19 19:15:00,
2013-10-19 14:20:00,50.8,33.8,29.62,WSW,248,2.0,7.0,52,0.00,CLR,,0.00,WeatherDisplay:10.37,2013-10-19 19:20:00,
2013-10-19 14:25:00,50.5,34.5,29.62,WSW,246,0.0,4.0,54,0.00,CLR,,0.00,WeatherDisplay:10.37,2013-10-19 19:25:00,
2013-10-19 14:30:00,50.2,34.2,29.62,WSW,241,0.0,5.0,54,0.00,CLR,,0.00,WeatherDisplay:10.37,2013-10-19 19:30:00,
2013-10-19 14:35:00,49.8,34.7,29.62,SW,235,1.0,6.0,56,0.00,CLR,,0.00,WeatherDisplay:10.37,2013-10-19 19:35:00,
2013-10-19 14:40:00,49.5,34.4,29.62,SW,229,0.0,4.0,56,0.00,CLR,,0.00,WeatherDisplay:10.37,2013-10-19 19:40:00,
2013-10-19 14:45:00,49.2,35.0,29.62,SW,229,0.0,3.0,58,0.00,CLR,,0.00,WeatherDisplay:10.37,2013-10-19 19:45:00,
2013-10-19 14:50:00,48.9,35.2,29.62,West,263,0.0,2.0,59,0.00,CLR,,0.00,WeatherDisplay:10.37,2013-10-19 19:50:00,
2013-10-19 14:55:00,48.9,35.6,29.62,WNW,299,0.0,0.0,60,0.00,CLR,,0.00,WeatherDisplay:10.37,2013-10-19 19:55:00,
2013-10-19 15:00:00,48.9,35.2,29.62,WNW,299,0.0,1.0,59,0.00,CLR,,0.00,WeatherDisplay:10.37,2013-10-19 20:00:00,
2013-10-19 15:05:00,49.2,35.5,29.62,WNW,300,0.0,3.0,59,0.00,CLR,,0.00,WeatherDisplay:10.37,2013-10-19 20:05:00,
2013-10-19 15:10:00,49.4,35.7,29.62,NNW,329,0.0,3.0,59,0.00,CLR,,0.00,WeatherDisplay:10.37,2013-10-19 20:10:00,
2013-10-19 15:20:00,49.8,36.0,29.62,NNW,341,0.0,3.0,59,0.00,CLR,,0.00,WeatherDisplay:10.37,2013-10-19 20:20:00,
2013-10-19 15:25:00,49.9,35.7,29.62,West,274,0.0,4.0,58,0.00,CLR,,0.00,WeatherDisplay:10.37,2013-10-19 20:25:00,
2013-10-19 15:30:00,50.0,34.9,29.62,SW,224,1.0,5.0,56,0.00,CLR,,0.00,WeatherDisplay:10.37,2013-10-19 20:30:00,
2013-10-19 15:35:00,50.2,34.6,29.62,SW,236,0.0,6.0,55,0.00,CLR,,0.00,WeatherDisplay:10.37,2013-10-19 20:35:00,
2013-10-19 15:40:00,50.2,35.1,29.62,WSW,238,2.0,7.0,56,0.00,CLR,,0.00,WeatherDisplay:10.37,2013-10-19 20:40:00,
2013-10-19 15:45:00,50.4,34.8,29.62,SW,223,2.0,8.0,55,0.00,CLR,,0.00,WeatherDisplay:10.37,2013-10-19 20:45:00,
2013-10-19 15:50:00,50.2,34.6,29.62,SW,229,3.0,8.0,55,0.00,CLR,,0.00,WeatherDisplay:10.37,2013-10-19 20:50:00,
2013-10-19 15:55:00,50.1,33.6,29.62,SW,232,2.0,7.0,53,0.00,CLR,,0.00,WeatherDisplay:10.37,2013-10-19 20:55:00,
2013-10-19 16:00:00,49.8,33.3,29.62,SW,230,1.0,5.0,53,0.00,CLR,,0.00,WeatherDisplay:10.37,2013-10-19 21:00:00,
2013-10-19 16:05:00,49.8,34.3,29.62,SW,227,2.0,7.0,55,0.00,CLR,,0.00,WeatherDisplay:10.37,2013-10-19 21:05:00,
2013-10-19 16:10:00,49.8,33.8,29.62,SW,232,1.0,7.0,54,0.00,CLR,,0.00,WeatherDisplay:10.37,2013-10-19 21:10:00,
2013-10-19 16:15:00,49.8,34.3,29.62,SW,233,3.0,7.0,55,0.00,CLR,,0.00,WeatherDisplay:10.37,2013-10-19 21:15:00,
2013-10-19 16:20:00,49.6,34.5,29.63,SW,236,7.0,20.0,56,0.00,CLR,,0.00,WeatherDisplay:10.37,2013-10-19 21:20:00,
2013-10-19 16:25:00,48.2,38.5,29.63,WSW,246,5.0,20.0,69,0.00,CLR,,0.00,WeatherDisplay:10.37,2013-10-19 21:25:00,
2013-10-19 16:30:00,46.3,39.5,29.63,WSW,252,2.0,12.0,77,0.00,CLR,,0.00,WeatherDisplay:10.37,2013-10-19 21:30:00,
2013-10-19 16:35:00,45.1,40.0,29.65,WSW,244,2.0,6.0,82,0.00,CLR,,0.00,WeatherDisplay:10.37,2013-10-19 21:35:00,
2013-10-19 16:40:00,44.5,40.0,29.65,SW,225,2.0,8.0,84,0.00,CLR,,0.00,WeatherDisplay:10.37,2013-10-19 21:40:00,
2013-10-19 16:45:00,44.1,39.6,29.65,WSW,247,1.0,6.0,84,0.00,CLR,,0.00,WeatherDisplay:10.37,2013-10-19 21:45:00,
2013-10-19 16:50:00,43.6,39.4,29.66,WSW,250,1.0,9.0,85,0.00,CLR,,0.00,WeatherDisplay:10.37,2013-10-19 21:50:00,
2013-10-19 16:55:00,43.3,39.7,29.66,WSW,243,0.0,4.0,87,0.01,RA,,0.01,WeatherDisplay:10.37,2013-10-19 21:55:00,
2013-10-19 17:00:00,43.1,39.8,29.66,SW,231,1.0,4.0,88,0.00,RA,,0.01,WeatherDisplay:10.37,2013-10-19 22:00:00,
2013-10-19 17:05:00,42.9,39.6,29.66,WSW,243,0.0,4.0,88,0.00,,,0.01,WeatherDisplay:10.37,2013-10-19 22:05:00,
2013-10-19 17:10:00,42.8,39.8,29.66,SW,236,0.0,4.0,89,0.00,CLR,,0.01,WeatherDisplay:10.37,2013-10-19 22:10:00,
2013-10-19 17:15:00,42.8,39.8,29.66,SSW,203,0.0,3.0,89,0.00,CLR,,0.01,WeatherDisplay:10.37,2013-10-19 22:15:00,
2013-10-19 17:20:00,42.7,39.7,29.66,SSW,204,0.0,3.0,89,0.00,CLR,,0.01,WeatherDisplay:10.37,2013-10-19 22:20:00,
2013-10-19 17:30:00,42.6,39.9,29.66,SSW,204,0.0,3.0,90,0.00,CLR,,0.01,WeatherDisplay:10.37,2013-10-19 22:30:00,
2013-10-19 17:35:00,42.6,39.9,29.66,SSW,204,0.0,2.0,90,0.00,CLR,,0.01,WeatherDisplay:10.37,2013-10-19 22:35:00,
2013-10-19 17:40:00,42.6,39.9,29.66,SSW,204,0.0,0.0,90,0.00,CLR,,0.01,WeatherDisplay:10.37,2013-10-19 22:40:00,
2013-10-19 17:45:00,42.6,39.9,29.66,SSW,204,0.0,2.0,90,0.00,CLR,,0.01,WeatherDisplay:10.37,2013-10-19 22:45:00,
2013-10-19 17:50:00,42.6,39.9,29.66,SSW,204,0.0,0.0,90,0.00,CLR,,0.01,WeatherDisplay:10.37,2013-10-19 22:50:00,
2013-10-19 17:55:00,42.6,39.9,29.66,SSW,204,0.0,0.0,90,0.00,CLR,,0.01,WeatherDisplay:10.37,2013-10-19 22:55:00,
2013-10-19 18:00:00,42.6,39.9,29.66,SSW,205,0.0,3.0,90,0.00,CLR,,0.01,WeatherDisplay:10.37,2013-10-19 23:00:00,
2013-10-19 18:05:00,42.5,39.8,29.66,SSW,202,0.0,2.0,90,0.00,CLR,,0.01,WeatherDisplay:10.37,2013-10-19 23:05:00,
2013-10-19 18:10:00,42.6,39.9,29.66,SSW,212,1.0,3.0,90,0.00,CLR,,0.01,WeatherDisplay:10.37,2013-10-19 23:10:00,
2013-10-19 18:15:00,42.6,39.9,29.66,SW,224,0.0,0.0,90,0.00,CLR,,0.01,WeatherDisplay:10.37,2013-10-19 23:15:00,
2013-10-19 18:20:00,42.6,39.9,29.66,SW,224,0.0,0.0,90,0.00,CLR,,0.01,WeatherDisplay:10.37,2013-10-19 23:20:00,
2013-10-19 18:25:00,42.6,39.9,29.66,SW,224,0.0,0.0,90,0.00,CLR,,0.01,WeatherDisplay:10.37,2013-10-19 23:25:00,
2013-10-19 18:30:00,42.6,39.9,29.66,SW,224,0.0,0.0,90,0.00,CLR,,0.01,WeatherDisplay:10.37,2013-10-19 23:30:00,
2013-10-19 18:35:00,42.6,39.9,29.66,SW,224,0.0,0.0,90,0.00,CLR,,0.01,WeatherDisplay:10.37,2013-10-19 23:35:00,
2013-10-19 18:40:00,42.6,40.2,29.66,SW,224,0.0,2.0,91,0.00,CLR,,0.01,WeatherDisplay:10.37,2013-10-19 23:40:00,
2013-10-19 18:45:00,42.6,40.2,29.66,SW,224,0.0,2.0,91,0.00,CLR,,0.01,WeatherDisplay:10.37,2013-10-19 23:45:00,
2013-10-19 18:50:00,42.6,40.2,29.66,SW,224,0.0,0.0,91,0.00,CLR,,0.01,WeatherDisplay:10.37,2013-10-19 23:50:00,
2013-10-19 18:55:00,42.5,40.1,29.66,SW,224,0.0,2.0,91,0.00,CLR,,0.01,WeatherDisplay:10.37,2013-10-19 23:55:00,
2013-10-19 19:00:00,42.3,39.9,29.66,SW,224,0.0,0.0,91,0.00,CLR,,0.01,WeatherDisplay:10.37,2013-10-20 00:00:00,
2013-10-19 19:05:00,42.1,39.7,29.66,SW,224,0.0,0.0,91,0.00,CLR,,0.01,WeatherDisplay:10.37,2013-10-20 00:05:00,
2013-10-19 19:10:00,41.8,39.4,29.66,SW,224,0.0,0.0,91,0.00,CLR,,0.01,WeatherDisplay:10.37,2013-10-20 00:10:00,
2013-10-19 19:15:00,41.5,39.1,29.66,SW,224,0.0,0.0,91,0.00,CLR,,0.01,WeatherDisplay:10.37,2013-10-20 00:15:00,
2013-10-19 19:20:00,41.1,38.7,29.66,SW,224,0.0,2.0,91,0.00,CLR,,0.01,WeatherDisplay:10.37,2013-10-20 00:20:00,
2013-10-19 19:25:00,40.7,38.6,29.66,SW,224,0.0,3.0,92,0.00,CLR,,0.01,WeatherDisplay:10.37,2013-10-20 00:25:00,
2013-10-19 19:30:00,40.4,38.3,29.66,SW,228,1.0,3.0,92,0.00,CLR,,0.01,WeatherDisplay:10.37,2013-10-20 00:30:00,
2013-10-19 19:35:00,40.3,38.4,29.66,SW,229,1.0,3.0,93,0.00,CLR,,0.01,WeatherDisplay:10.37,2013-10-20 00:35:00,
2013-10-19 19:40:00,40.2,38.6,29.66,SW,230,0.0,2.0,94,0.00,CLR,,0.01,WeatherDisplay:10.37,2013-10-20 00:40:00,
2013-10-19 19:45:00,40.2,38.9,29.66,SW,226,0.0,4.0,95,0.00,CLR,,0.01,WeatherDisplay:10.37,2013-10-20 00:45:00,
2013-10-19 19:50:00,40.4,39.4,29.66,SW,222,0.0,3.0,96,0.00,CLR,,0.01,WeatherDisplay:10.37,2013-10-20 00:50:00,
2013-10-19 19:55:00,40.5,39.4,29.66,SW,220,0.0,3.0,96,0.00,CLR,,0.01,WeatherDisplay:10.37,2013-10-20 00:55:00,
2013-10-19 20:00:00,40.5,39.4,29.66,SW,220,2.0,4.0,96,0.00,CLR,,0.01,WeatherDisplay:10.37,2013-10-20 01:00:00,
2013-10-19 20:05:00,40.6,39.5,29.66,SW,220,0.0,2.0,96,0.00,CLR,,0.01,WeatherDisplay:10.37,2013-10-20 01:05:00,
2013-10-19 20:10:00,40.7,39.7,29.66,SW,218,0.0,4.0,96,0.00,CLR,,0.01,WeatherDisplay:10.37,2013-10-20 01:10:00,
2013-10-19 20:15:00,40.6,39.5,29.66,SW,215,0.0,2.0,96,0.00,CLR,,0.01,WeatherDisplay:10.37,2013-10-20 01:15:00,
2013-10-19 20:20:00,40.7,39.7,29.66,SW,219,1.0,3.0,96,0.00,CLR,,0.01,WeatherDisplay:10.37,2013-10-20 01:20:00,
2013-10-19 20:25:00,40.9,39.8,29.66,SW,226,1.0,3.0,96,0.00,CLR,,0.01,WeatherDisplay:10.37,2013-10-20 01:25:00,
2013-10-19 20:30:00,41.1,40.0,29.66,SW,224,0.0,4.0,96,0.00,CLR,,0.01,WeatherDisplay:10.37,2013-10-20 01:30:00,
2013-10-19 20:35:00,41.2,40.1,29.66,SSW,205,1.0,4.0,96,0.00,CLR,,0.01,WeatherDisplay:10.37,2013-10-20 01:35:00,
2013-10-19 20:40:00,41.3,40.2,29.66,SSW,198,1.0,4.0,96,0.00,CLR,,0.01,WeatherDisplay:10.37,2013-10-20 01:40:00,
2013-10-19 20:45:00,41.5,40.2,29.66,SSW,204,0.0,4.0,95,0.00,CLR,,0.01,WeatherDisplay:10.37,2013-10-20 01:45:00,
2013-10-19 20:50:00,41.5,39.9,29.66,SSW,207,0.0,2.0,94,0.00,CLR,,0.01,WeatherDisplay:10.37,2013-10-20 01:50:00,
2013-10-19 20:55:00,41.5,39.9,29.66,SSW,207,1.0,3.0,94,0.00,CLR,,0.01,WeatherDisplay:10.37,2013-10-20 01:55:00,
2013-10-19 21:00:00,41.5,39.6,29.66,SSW,208,0.0,3.0,93,0.00,CLR,,0.01,WeatherDisplay:10.37,2013-10-20 02:00:00,
2013-10-19 21:05:00,41.5,39.6,29.66,SSW,209,0.0,2.0,93,0.00,CLR,,0.01,WeatherDisplay:10.37,2013-10-20 02:05:00,
2013-10-19 21:10:00,41.5,39.6,29.66,SSW,202,1.0,3.0,93,0.00,CLR,,0.01,WeatherDisplay:10.37,2013-10-20 02:10:00,
2013-10-19 21:15:00,41.6,39.7,29.66,SSW,202,0.0,2.0,93,0.00,CLR,,0.01,WeatherDisplay:10.37,2013-10-20 02:15:00,
2013-10-19 21:20:00,41.6,39.4,29.67,SSW,205,0.0,0.0,92,0.00,CLR,,0.01,WeatherDisplay:10.37,2013-10-20 02:20:00,
2013-10-19 21:25:00,41.6,39.5,29.67,SSW,205,0.0,0.0,92,0.00,CLR,,0.01,WeatherDisplay:10.37,2013-10-20 02:25:00,
2013-10-19 21:30:00,41.8,39.6,29.67,SSW,207,0.0,2.0,92,0.00,CLR,,0.01,WeatherDisplay:10.37,2013-10-20 02:30:00,
2013-10-19 21:40:00,41.8,39.6,29.67,NW,317,0.0,0.0,92,0.00,CLR,,0.01,WeatherDisplay:10.37,2013-10-20 02:40:00,
2013-10-19 21:45:00,41.6,39.4,29.67,NW,317,0.0,0.0,92,0.00,CLR,,0.01,WeatherDisplay:10.37,2013-10-20 02:45:00,
2013-10-19 21:50:00,41.5,39.3,29.68,NW,317,0.0,0.0,92,0.00,CLR,,0.01,WeatherDisplay:10.37,2013-10-20 02:50:00,
2013-10-19 21:55:00,41.2,39.1,29.68,NW,317,0.0,1.0,92,0.00,CLR,,0.01,WeatherDisplay:10.37,2013-10-20 02:55:00,
2013-10-19 22:00:00,41.0,38.9,29.68,NW,317,0.0,1.0,92,0.00,CLR,,0.01,WeatherDisplay:10.37,2013-10-20 03:00:00,
2013-10-19 22:05:00,40.8,38.7,29.68,NW,314,0.0,0.0,92,0.00,CLR,,0.01,WeatherDisplay:10.37,2013-10-20 03:05:00,
2013-10-19 22:10:00,40.6,38.5,29.68,NW,310,0.0,0.0,92,0.00,CLR,,0.01,WeatherDisplay:10.37,2013-10-20 03:10:00,
2013-10-19 22:15:00,40.5,38.6,29.68,WNW,292,1.0,4.0,93,0.00,CLR,,0.01,WeatherDisplay:10.37,2013-10-20 03:15:00,
2013-10-19 22:20:00,40.5,38.6,29.68,West,268,0.0,3.0,93,0.00,CLR,,0.01,WeatherDisplay:10.37,2013-10-20 03:20:00,
2013-10-19 22:25:00,40.5,38.9,29.68,WSW,257,0.0,2.0,94,0.00,CLR,,0.01,WeatherDisplay:10.37,2013-10-20 03:25:00,
2013-10-19 22:30:00,40.5,38.9,29.68,SW,227,2.0,6.0,94,0.00,CLR,,0.01,WeatherDisplay:10.37,2013-10-20 03:30:00,
2013-10-19 22:35:00,40.6,39.0,29.68,SSW,210,1.0,4.0,94,0.00,CLR,,0.01,WeatherDisplay:10.37,2013-10-20 03:35:00,
2013-10-19 22:40:00,40.6,39.0,29.68,SW,218,1.0,5.0,94,0.00,CLR,,0.01,WeatherDisplay:10.37,2013-10-20 03:40:00,
2013-10-19 22:45:00,40.8,38.9,29.68,WSW,253,1.0,7.0,93,0.00,CLR,,0.01,WeatherDisplay:10.37,2013-10-20 03:45:00,
2013-10-19 22:50:00,40.8,38.9,29.68,WSW,252,0.0,2.0,93,0.00,CLR,,0.01,WeatherDisplay:10.37,2013-10-20 03:50:00,
2013-10-19 22:55:00,40.9,39.0,29.68,WSW,238,0.0,2.0,93,0.00,CLR,,0.01,WeatherDisplay:10.37,2013-10-20 03:55:00,
2013-10-19 23:00:00,40.9,39.0,29.68,WSW,244,0.0,3.0,93,0.00,CLR,,0.01,WeatherDisplay:10.37,2013-10-20 04:00:00,
2013-10-19 23:05:00,41.1,39.2,29.68,WSW,254,1.0,4.0,93,0.00,CLR,,0.01,WeatherDisplay:10.37,2013-10-20 04:05:00,
2013-10-19 23:10:00,41.1,39.2,29.68,West,271,0.0,2.0,93,0.00,CLR,,0.01,WeatherDisplay:10.37,2013-10-20 04:10:00,
2013-10-19 23:15:00,41.2,39.3,29.68,WNW,283,0.0,2.0,93,0.00,CLR,,0.01,WeatherDisplay:10.37,2013-10-20 04:15:00,
2013-10-19 23:20:00,41.2,39.1,29.68,WNW,294,1.0,3.0,92,0.00,CLR,,0.01,WeatherDisplay:10.37,2013-10-20 04:20:00,
2013-10-19 23:25:00,41.6,39.2,29.68,NW,315,0.0,4.0,91,0.00,CLR,,0.01,WeatherDisplay:10.37,2013-10-20 04:25:00,
2013-10-19 23:30:00,41.5,38.8,29.68,NNW,332,0.0,3.0,90,0.00,CLR,,0.01,WeatherDisplay:10.37,2013-10-20 04:30:00,
2013-10-19 23:35:00,41.4,38.7,29.68,NW,326,0.0,4.0,90,0.00,CLR,,0.01,WeatherDisplay:10.37,2013-10-20 04:35:00,
2013-10-19 23:40:00,41.2,38.5,29.68,NW,306,0.0,2.0,90,0.00,CLR,,0.01,WeatherDisplay:10.37,2013-10-20 04:40:00,
2013-10-19 23:45:00,41.1,38.4,29.68,West,274,0.0,4.0,90,0.00,CLR,,0.01,WeatherDisplay:10.37,2013-10-20 04:45:00,
2013-10-19 23:50:00,40.8,38.4,29.69,WSW,250,0.0,2.0,91,0.00,CLR,,0.01,WeatherDisplay:10.37,2013-10-20 04:50:00,
2013-10-19 23:55:00,40.6,38.2,29.69,WSW,248,0.0,3.0,91,0.00,CLR,,0.01,WeatherDisplay:10.37,2013-10-20 04:55:00,